createdAt,value
2023-05-24T00:01:49.746Z,99795.57
2023-05-24T00:04:20.655Z,99798.27
2023-05-24T00:06:51.563Z,99796.21
2023-05-24T00:09:22.452Z,99796.02
2023-05-24T00:11:53.323Z,99796.08
2023-05-24T00:14:24.115Z,99796.05
2023-05-24T00:16:55.045Z,99793.33
2023-05-24T00:19:25.987Z,99794.73
2023-05-24T00:21:56.788Z,99789.36
2023-05-24T00:24:27.553Z,99790.27
2023-05-24T00:26:58.337Z,99788.39
2023-05-24T00:29:31.442Z,99789.19
2023-05-24T00:32:04.351Z,99790.30
2023-05-24T00:34:35.151Z,99788.63
2023-05-24T00:37:07.477Z,99785.50
2023-05-24T00:39:38.213Z,99781.84
2023-05-24T00:42:09.112Z,99780.46
2023-05-24T00:44:39.853Z,99781.22
2023-05-24T00:47:10.716Z,99785.44
2023-05-24T00:49:41.625Z,99783.34
2023-05-24T00:52:12.549Z,99784.64
2023-05-24T00:54:44.274Z,99784.27
2023-05-24T00:57:15.654Z,99784.42
2023-05-24T00:59:47.122Z,99784.98
2023-05-24T01:02:18.667Z,99784.61
2023-05-24T01:04:51.002Z,99782.19
2023-05-24T01:07:26.953Z,99782.00
2023-05-24T01:10:04.159Z,99780.95
2023-05-24T01:12:53.016Z,99778.51
2023-05-24T01:15:26.738Z,99781.02
2023-05-24T01:18:02.965Z,99779.30
2023-05-24T01:20:34.745Z,99778.38
2023-05-24T01:23:25.828Z,99778.95
2023-05-24T01:26:02.125Z,99778.55
2023-05-24T01:28:33.831Z,99781.50
2023-05-24T01:31:05.454Z,99785.27
2023-05-24T01:33:36.697Z,99780.05
2023-05-24T01:36:08.209Z,99786.37
2023-05-24T01:38:39.579Z,99782.91
2023-05-24T01:41:27.173Z,99778.45
2023-05-24T01:44:04.341Z,99786.80
2023-05-24T01:46:37.095Z,99786.26
2023-05-24T01:49:20.612Z,99787.79
2023-05-24T01:51:52.724Z,99787.08
2023-05-24T01:54:27.141Z,99782.14
2023-05-24T01:56:58.663Z,99784.68
2023-05-24T01:59:31.350Z,99784.86
2023-05-24T02:02:02.473Z,99785.10
2023-05-24T02:04:33.390Z,99786.38
2023-05-24T02:07:04.320Z,99786.02
2023-05-24T02:09:35.216Z,99786.35
2023-05-24T02:12:06.609Z,99783.56
2023-05-24T02:14:38.340Z,99784.57
2023-05-24T02:17:09.476Z,99783.94
2023-05-24T02:19:40.304Z,99783.45
2023-05-24T02:22:11.090Z,99781.06
2023-05-24T02:24:41.968Z,99786.27
2023-05-24T02:27:12.756Z,99784.81
2023-05-24T02:29:43.546Z,99781.89
2023-05-24T02:32:14.744Z,99781.98
2023-05-24T02:34:45.766Z,99781.81
2023-05-24T02:37:16.733Z,99779.89
2023-05-24T02:39:47.644Z,99781.08
2023-05-24T02:42:18.643Z,99779.56
2023-05-24T02:44:52.597Z,99773.02
2023-05-24T02:47:23.517Z,99773.05
2023-05-24T02:49:54.428Z,99775.95
2023-05-24T02:52:25.713Z,99779.77
2023-05-24T02:54:56.656Z,99775.91
2023-05-24T02:57:28.901Z,99774.83
2023-05-24T03:00:00.169Z,99779.52
2023-05-24T03:02:34.256Z,99781.19
2023-05-24T03:05:06.093Z,99780.98
2023-05-24T03:07:36.911Z,99782.02
2023-05-24T03:10:08.653Z,99785.28
2023-05-24T03:12:39.762Z,99783.75
2023-05-24T03:15:12.714Z,99787.92
2023-05-24T03:17:43.566Z,99790.11
2023-05-24T03:20:17.719Z,99789.45
2023-05-24T03:22:49.567Z,99799.67
2023-05-24T03:25:20.429Z,99802.36
2023-05-24T03:27:51.470Z,99798.20
2023-05-24T03:30:23.229Z,99798.34
2023-05-24T03:32:57.458Z,99795.98
2023-05-24T03:35:28.457Z,99798.48
2023-05-24T03:38:00.133Z,99799.36
2023-05-24T03:40:33.744Z,99799.57
2023-05-24T03:43:17.145Z,99804.45
2023-05-24T03:46:00.457Z,99803.05
2023-05-24T03:48:31.295Z,99805.58
2023-05-24T03:51:02.929Z,99807.11
2023-05-24T03:53:33.849Z,99806.86
2023-05-24T03:56:04.669Z,99810.27
2023-05-24T03:58:35.450Z,99811.55
2023-05-24T04:01:06.935Z,99814.14
2023-05-24T04:03:39.244Z,99819.52
2023-05-24T04:06:10.300Z,99819.29
2023-05-24T04:08:41.200Z,99820.53
2023-05-24T04:11:13.411Z,99819.78
2023-05-24T04:13:44.191Z,99821.81
2023-05-24T04:16:15.298Z,99828.10
2023-05-24T04:18:46.484Z,99831.87
2023-05-24T04:21:17.425Z,99835.27
2023-05-24T04:23:48.319Z,99828.80
2023-05-24T04:26:19.227Z,99830.14
2023-05-24T04:28:50.021Z,99833.95
2023-05-24T04:31:21.466Z,99835.58
2023-05-24T04:33:52.796Z,99837.02
2023-05-24T04:36:25.318Z,99841.68
2023-05-24T04:38:56.250Z,99841.68
2023-05-24T04:41:29.251Z,99846.87
2023-05-24T04:44:00.922Z,99847.48
2023-05-24T04:46:31.730Z,99855.45
2023-05-24T04:49:02.626Z,99856.27
2023-05-24T04:51:33.957Z,99856.79
2023-05-24T04:54:08.879Z,99856.66
2023-05-24T04:56:40.258Z,99861.42
2023-05-24T04:59:11.178Z,99861.75
2023-05-24T05:01:42.098Z,99868.64
2023-05-24T05:04:13.027Z,99869.23
2023-05-24T05:06:44.874Z,99871.99
2023-05-24T05:09:15.963Z,99867.52
2023-05-24T05:11:47.238Z,99875.46
2023-05-24T05:14:18.002Z,99881.98
2023-05-24T05:16:49.027Z,99884.08
2023-05-24T05:19:20.073Z,99886.11
2023-05-24T05:21:50.980Z,99887.97
2023-05-24T05:24:22.018Z,99885.84
2023-05-24T05:26:52.849Z,99887.48
2023-05-24T05:29:24.503Z,99891.19
2023-05-24T05:31:55.969Z,99890.13
2023-05-24T05:34:26.816Z,99884.17
2023-05-24T05:36:57.606Z,99886.95
2023-05-24T05:39:28.460Z,99887.54
2023-05-24T05:41:59.484Z,99890.17
2023-05-24T05:44:30.230Z,99893.04
2023-05-24T05:47:01.071Z,99891.20
2023-05-24T05:49:32.159Z,99892.42
2023-05-24T05:52:03.016Z,99894.40
2023-05-24T05:54:34.024Z,99897.05
2023-05-24T05:57:05.098Z,99898.85
2023-05-24T05:59:36.425Z,99901.48
2023-05-24T06:02:07.727Z,99904.23
2023-05-24T06:04:39.219Z,99908.69
2023-05-24T06:07:10.183Z,99906.63
2023-05-24T06:09:41.060Z,99909.05
2023-05-24T06:12:11.879Z,99911.48
2023-05-24T06:14:42.699Z,99916.77
2023-05-24T06:17:13.752Z,99920.95
2023-05-24T06:19:44.786Z,99918.42
2023-05-24T06:22:15.623Z,99922.33
2023-05-24T06:24:47.078Z,99925.65
2023-05-24T06:27:17.951Z,99929.05
2023-05-24T06:29:49.249Z,99932.42
2023-05-24T06:32:20.056Z,99937.15
2023-05-24T06:34:50.889Z,99944.04
2023-05-24T06:37:25.840Z,99948.34
2023-05-24T06:39:56.601Z,99947.63
2023-05-24T06:42:27.422Z,99952.77
2023-05-24T06:44:58.929Z,99954.17
2023-05-24T06:47:30.049Z,99954.23
2023-05-24T06:50:02.200Z,99957.05
2023-05-24T06:52:33.036Z,99961.29
2023-05-24T06:55:03.788Z,99960.29
2023-05-24T06:57:34.495Z,99967.86
2023-05-24T07:00:10.084Z,99971.16
2023-05-24T07:02:41.139Z,99973.02
2023-05-24T07:05:12.680Z,99976.23
2023-05-24T07:07:44.326Z,99976.68
2023-05-24T07:10:15.133Z,99980.63
2023-05-24T07:12:46.241Z,99979.20
2023-05-24T07:15:17.108Z,99980.71
2023-05-24T07:17:48.394Z,99982.13
2023-05-24T07:20:19.382Z,99985.66
2023-05-24T07:22:50.171Z,99989.40
2023-05-24T07:25:20.923Z,99993.97
2023-05-24T07:27:52.012Z,99996.46
2023-05-24T07:30:31.793Z,99999.91
2023-05-24T07:33:03.775Z,100003.96
2023-05-24T07:35:35.160Z,100004.53
2023-05-24T07:38:05.975Z,100009.58
2023-05-24T07:40:36.832Z,100010.01
2023-05-24T07:43:07.764Z,100010.81
2023-05-24T07:45:38.696Z,100014.05
2023-05-24T07:48:09.545Z,100015.83
2023-05-24T07:50:40.476Z,100018.09
2023-05-24T07:53:11.982Z,100018.55
2023-05-24T07:55:43.014Z,100020.81
2023-05-24T07:58:14.028Z,100017.98
2023-05-24T08:00:45.264Z,100020.68
2023-05-24T08:03:17.530Z,100020.69
2023-05-24T08:05:48.624Z,100023.77
2023-05-24T08:08:19.712Z,100024.70
2023-05-24T08:10:50.497Z,100028.84
2023-05-24T08:13:21.277Z,100030.50
2023-05-24T08:15:52.035Z,100031.70
2023-05-24T08:18:22.898Z,100035.44
2023-05-24T08:20:53.564Z,100041.27
2023-05-24T08:23:24.429Z,100045.23
2023-05-24T08:25:55.246Z,100045.14
2023-05-24T08:28:28.294Z,100045.44
2023-05-24T08:30:59.729Z,100045.52
2023-05-24T08:33:30.556Z,100046.09
2023-05-24T08:36:01.500Z,100047.34
2023-05-24T08:38:32.263Z,100047.08
2023-05-24T08:41:03.521Z,100046.80
2023-05-24T08:43:34.474Z,100050.70
2023-05-24T08:46:06.282Z,100050.48
2023-05-24T08:48:42.764Z,100052.13
2023-05-24T08:51:13.832Z,100053.27
2023-05-24T08:53:49.089Z,100056.20
2023-05-24T08:56:20.245Z,100056.02
2023-05-24T08:58:52.049Z,100055.70
2023-05-24T09:01:23.350Z,100059.79
2023-05-24T09:03:55.169Z,100058.58
2023-05-24T09:06:26.563Z,100061.50
2023-05-24T09:08:57.911Z,100061.73
2023-05-24T09:11:28.792Z,100060.22
2023-05-24T09:13:59.641Z,100058.20
2023-05-24T09:16:30.821Z,100059.67
2023-05-24T09:19:01.644Z,100060.61
2023-05-24T09:21:32.866Z,100064.55
2023-05-24T09:24:03.682Z,100062.48
2023-05-24T09:26:34.514Z,100062.64
2023-05-24T09:29:07.791Z,100063.06
2023-05-24T09:31:40.405Z,100061.31
2023-05-24T09:34:18.908Z,100063.91
2023-05-24T09:36:49.806Z,100062.52
2023-05-24T09:39:22.495Z,100063.92
2023-05-24T09:41:57.528Z,100057.28
2023-05-24T09:44:28.625Z,100055.41
2023-05-24T09:47:05.391Z,100057.67
2023-05-24T09:49:38.134Z,100058.64
2023-05-24T09:52:09.167Z,100055.23
2023-05-24T09:54:41.704Z,100055.50
2023-05-24T09:57:12.669Z,100053.77
2023-05-24T09:59:44.517Z,100054.06
2023-05-24T10:02:15.292Z,100054.59
2023-05-24T10:04:46.270Z,100060.80
2023-05-24T10:07:17.620Z,100066.05
2023-05-24T10:09:48.535Z,100072.45
2023-05-24T10:12:23.307Z,100071.58
2023-05-24T10:14:57.600Z,100071.23
2023-05-24T10:17:28.950Z,100073.45
2023-05-24T10:19:59.787Z,100081.36
2023-05-24T10:22:31.694Z,100081.81
2023-05-24T10:25:02.693Z,100084.86
2023-05-24T10:27:34.045Z,100088.79
2023-05-24T10:30:13.707Z,100086.89
2023-05-24T10:32:46.601Z,100083.41
2023-05-24T10:35:20.265Z,100080.84
2023-05-24T10:37:51.288Z,100082.81
2023-05-24T10:40:25.444Z,100086.81
2023-05-24T10:42:56.854Z,100081.37
2023-05-24T10:45:36.069Z,100086.67
2023-05-24T10:48:29.767Z,100080.00
2023-05-24T10:51:01.974Z,100082.14
2023-05-24T10:53:39.733Z,100085.85
2023-05-24T10:56:11.152Z,100087.29
2023-05-24T10:58:59.615Z,100083.54
2023-05-24T11:01:32.323Z,100083.27
2023-05-24T11:04:10.664Z,100083.92
2023-05-24T11:06:51.653Z,100088.45
2023-05-24T11:09:22.793Z,100089.98
2023-05-24T11:11:56.253Z,100083.40
2023-05-24T11:14:31.321Z,100079.00
2023-05-24T11:17:02.284Z,100080.70
2023-05-24T11:19:35.086Z,100071.55
2023-05-24T11:22:07.868Z,100070.30
2023-05-24T11:24:38.794Z,100074.08
2023-05-24T11:27:12.260Z,100080.67
2023-05-24T11:29:43.693Z,100089.42
2023-05-24T11:32:17.572Z,100090.20
2023-05-24T11:34:49.108Z,100090.16
2023-05-24T11:37:26.275Z,100094.84
2023-05-24T11:39:59.974Z,100092.41
2023-05-24T11:42:30.862Z,100096.44
2023-05-24T11:45:01.830Z,100101.31
2023-05-24T11:47:36.636Z,100100.05
2023-05-24T11:50:08.229Z,100100.56
2023-05-24T11:52:41.422Z,100099.85
2023-05-24T11:55:17.299Z,100099.68
2023-05-24T11:57:50.974Z,100108.80
2023-05-24T12:00:26.918Z,100108.29
2023-05-24T12:03:05.287Z,100111.81
2023-05-24T12:05:37.390Z,100111.58
2023-05-24T12:08:12.349Z,100115.81
2023-05-24T12:10:44.323Z,100122.02
2023-05-24T12:13:26.723Z,100124.69
2023-05-24T12:15:58.359Z,100122.33
2023-05-24T12:18:30.071Z,100120.73
2023-05-24T12:21:00.902Z,100122.55
2023-05-24T12:23:33.027Z,100124.59
2023-05-24T12:26:04.642Z,100123.27
2023-05-24T12:28:39.320Z,100125.94
2023-05-24T12:31:10.258Z,100124.75
2023-05-24T12:33:41.184Z,100128.83
2023-05-24T12:36:13.004Z,100131.95
2023-05-24T12:38:43.948Z,100132.61
2023-05-24T12:41:14.888Z,100139.80
2023-05-24T12:43:45.882Z,100138.48
2023-05-24T12:46:16.712Z,100139.31
2023-05-24T12:48:47.531Z,100134.31
2023-05-24T12:51:18.435Z,100138.66
2023-05-24T12:53:49.254Z,100133.25
2023-05-24T12:56:20.111Z,100132.06
2023-05-24T12:58:51.054Z,100130.95
2023-05-24T13:01:21.955Z,100131.69
2023-05-24T13:03:53.775Z,100124.48
2023-05-24T13:06:25.616Z,100129.52
2023-05-24T13:08:56.445Z,100130.27
2023-05-24T13:11:27.860Z,100122.70
2023-05-24T13:13:59.963Z,100125.27
2023-05-24T13:16:30.860Z,100126.48
2023-05-24T13:19:01.939Z,100123.77
2023-05-24T13:21:32.733Z,100131.55
2023-05-24T13:24:03.820Z,100124.77
2023-05-24T13:26:37.594Z,100129.56
2023-05-24T13:29:32.156Z,100128.56
2023-05-24T13:31:59.845Z,100128.13
2023-05-24T13:34:30.804Z,100118.51
2023-05-24T13:37:01.830Z,100120.00
2023-05-24T13:39:33.015Z,100124.69
2023-05-24T13:42:03.923Z,100126.69
2023-05-24T13:44:34.870Z,100126.71
2023-05-24T13:47:06.023Z,100126.73
2023-05-24T13:49:38.028Z,100119.89
2023-05-24T13:52:08.968Z,100120.50
2023-05-24T13:54:39.842Z,100119.23
2023-05-24T13:57:10.626Z,100117.77
2023-05-24T13:59:41.930Z,100116.63
2023-05-24T14:02:12.715Z,100117.02
2023-05-24T14:04:43.785Z,100114.48
2023-05-24T14:07:15.840Z,100116.70
2023-05-24T14:09:46.935Z,100122.73
2023-05-24T14:12:17.801Z,100126.81
2023-05-24T14:17:22.319Z,100120.13
2023-05-24T14:19:53.081Z,100118.26
2023-05-24T14:22:26.028Z,100115.83
2023-05-24T14:24:56.862Z,100113.73
2023-05-24T14:27:27.823Z,100113.73
2023-05-24T14:29:58.563Z,100114.23
2023-05-24T14:32:29.292Z,100117.70
2023-05-24T14:35:00.149Z,100111.98
2023-05-24T14:37:31.078Z,100111.73
2023-05-24T14:40:02.222Z,100112.73
2023-05-24T14:42:33.385Z,100113.55
2023-05-24T14:45:04.606Z,100114.48
2023-05-24T14:47:35.861Z,100122.66
2023-05-24T14:50:07.442Z,100118.40
2023-05-24T14:52:38.222Z,100116.97
2023-05-24T14:55:09.896Z,100123.55
2023-05-24T14:57:41.960Z,100120.15
2023-05-24T15:00:14.179Z,100121.52
2023-05-24T15:02:44.913Z,100124.14
2023-05-24T15:05:16.165Z,100129.92
2023-05-24T15:07:47.025Z,100126.64
2023-05-24T15:10:17.827Z,100124.98
2023-05-24T15:12:48.786Z,100128.58
2023-05-24T15:15:20.377Z,100129.17
2023-05-24T15:17:51.386Z,100130.95
2023-05-24T15:20:22.557Z,100132.15
2023-05-24T15:22:53.607Z,100136.23
2023-05-24T15:25:24.486Z,100130.88
2023-05-24T15:27:55.306Z,100134.84
2023-05-24T15:30:26.209Z,100135.77
2023-05-24T15:32:57.336Z,100138.74
2023-05-24T15:35:28.233Z,100138.90
2023-05-24T15:37:58.967Z,100140.65
2023-05-24T15:40:29.956Z,100139.13
2023-05-24T15:43:00.752Z,100139.63
2023-05-24T15:45:31.574Z,100143.52
2023-05-24T15:48:02.429Z,100147.31
2023-05-24T15:50:54.114Z,100143.89
2023-05-24T15:53:25.507Z,100145.97
2023-05-24T15:55:57.552Z,100145.83
2023-05-24T15:58:28.382Z,100143.55
2023-05-24T16:00:59.093Z,100148.23
2023-05-24T16:03:29.959Z,100145.73
2023-05-24T16:06:00.932Z,100149.67
2023-05-24T16:08:31.886Z,100151.92
2023-05-24T16:11:03.899Z,100156.10
2023-05-24T16:13:34.728Z,100155.98
2023-05-24T16:16:05.625Z,100156.44
2023-05-24T16:18:37.240Z,100155.23
2023-05-24T16:21:07.940Z,100159.73
2023-05-24T16:23:38.771Z,100160.39
2023-05-24T16:26:09.619Z,100158.56
2023-05-24T16:28:40.346Z,100162.46
2023-05-24T16:31:11.181Z,100163.80
2023-05-24T16:33:42.398Z,100163.14
2023-05-24T16:36:13.556Z,100162.91
2023-05-24T16:38:44.407Z,100163.77
2023-05-24T16:41:15.188Z,100165.59
2023-05-24T16:43:46.227Z,100167.29
2023-05-24T16:46:17.190Z,100169.30
2023-05-24T16:48:48.107Z,100172.23
2023-05-24T16:51:19.139Z,100175.52
2023-05-24T16:53:49.937Z,100179.42
2023-05-24T16:56:20.699Z,100178.77
2023-05-24T16:58:52.075Z,100182.73
2023-05-24T17:01:23.013Z,100183.36
2023-05-24T17:03:53.926Z,100187.09
2023-05-24T17:06:25.173Z,100189.35
2023-05-24T17:08:56.099Z,100195.76
2023-05-24T17:11:26.925Z,100198.41
2023-05-24T17:13:57.838Z,100201.39
2023-05-24T17:16:29.993Z,100202.95
2023-05-24T17:19:01.207Z,100206.67
2023-05-24T17:21:31.967Z,100206.73
2023-05-24T17:24:02.799Z,100210.01
2023-05-24T17:26:34.695Z,100208.60
2023-05-24T17:29:05.885Z,100214.96
2023-05-24T17:31:37.588Z,100218.27
2023-05-24T17:34:08.247Z,100223.92
2023-05-24T17:36:39.063Z,100225.84
2023-05-24T17:39:09.758Z,100226.61
2023-05-24T17:41:40.944Z,100230.73
2023-05-24T17:44:11.839Z,100236.29
2023-05-24T17:46:42.754Z,100237.24
2023-05-24T17:49:14.267Z,100241.66
2023-05-24T17:51:45.013Z,100245.35
2023-05-24T17:54:15.805Z,100240.21
2023-05-24T17:56:46.692Z,100243.20
2023-05-24T17:59:17.457Z,100242.38
2023-05-24T18:01:49.095Z,100247.63
2023-05-24T18:04:20.180Z,100250.41
2023-05-24T18:06:51.005Z,100251.69
2023-05-24T18:09:22.198Z,100259.93
2023-05-24T18:11:53.069Z,100263.08
2023-05-24T18:14:23.925Z,100266.55
2023-05-24T18:16:57.160Z,100271.84
2023-05-24T18:19:29.222Z,100277.09
2023-05-24T18:21:59.990Z,100283.65
2023-05-24T18:24:30.847Z,100286.65
2023-05-24T18:27:02.385Z,100287.84
2023-05-24T18:29:33.200Z,100295.09
2023-05-24T18:32:04.051Z,100300.83
2023-05-24T18:34:34.821Z,100305.70
2023-05-24T18:37:06.048Z,100307.71
2023-05-24T18:39:37.243Z,100311.50
2023-05-24T18:42:09.310Z,100317.70
2023-05-24T18:44:40.287Z,100321.02
2023-05-24T18:47:11.798Z,100321.65
2023-05-24T18:49:42.636Z,100328.83
2023-05-24T18:52:13.537Z,100334.89
2023-05-24T18:54:44.297Z,100342.39
2023-05-24T18:57:15.086Z,100341.26
2023-05-24T18:59:45.815Z,100347.34
2023-05-24T19:02:16.765Z,100350.48
2023-05-24T19:04:49.079Z,100351.41
2023-05-24T19:07:19.920Z,100354.90
2023-05-24T19:09:50.894Z,100359.39
2023-05-24T19:12:21.758Z,100362.85
2023-05-24T19:14:52.629Z,100367.60
2023-05-24T19:17:24.279Z,100367.02
2023-05-24T19:19:55.376Z,100370.81
2023-05-24T19:22:26.382Z,100373.04
2023-05-24T19:24:57.276Z,100371.34
2023-05-24T19:27:28.598Z,100373.84
2023-05-24T19:30:00.284Z,100375.90
2023-05-24T19:32:31.093Z,100379.91
2023-05-24T19:35:01.862Z,100377.29
2023-05-24T19:37:32.723Z,100378.79
2023-05-24T19:40:03.882Z,100381.35
2023-05-24T19:42:35.252Z,100384.81
2023-05-24T19:45:09.608Z,100388.48
2023-05-24T19:47:40.682Z,100393.40
2023-05-24T19:50:12.515Z,100393.85
2023-05-24T19:52:43.732Z,100389.95
2023-05-24T19:55:14.574Z,100388.33
2023-05-24T19:57:45.347Z,100387.29
2023-05-24T20:00:16.553Z,100386.48
2023-05-24T20:02:47.355Z,100388.70
2023-05-24T20:05:18.476Z,100388.84
2023-05-24T20:07:49.337Z,100392.64
2023-05-24T20:10:20.322Z,100391.41
2023-05-24T20:12:51.153Z,100395.71
2023-05-24T20:15:26.922Z,100396.70
2023-05-24T20:17:57.980Z,100392.89
2023-05-24T20:20:28.871Z,100397.40
2023-05-24T20:22:59.827Z,100401.23
2023-05-24T20:25:30.623Z,100401.20
2023-05-24T20:28:01.410Z,100402.44
2023-05-24T20:30:32.266Z,100403.31
2023-05-24T20:33:03.153Z,100402.92
2023-05-24T20:35:34.140Z,100403.08
2023-05-24T20:38:05.348Z,100403.09
2023-05-24T20:40:36.254Z,100399.69
2023-05-24T20:43:08.592Z,100404.73
2023-05-24T20:45:39.393Z,100402.13
2023-05-24T20:48:10.309Z,100402.53
2023-05-24T20:50:41.351Z,100406.30
2023-05-24T20:53:14.136Z,100413.30
2023-05-24T20:55:45.353Z,100417.60
2023-05-24T20:58:17.301Z,100420.60
2023-05-24T21:00:48.175Z,100422.91
2023-05-24T21:03:19.107Z,100428.52
2023-05-24T21:05:50.031Z,100430.80
2023-05-24T21:08:20.833Z,100428.09
2023-05-24T21:10:51.636Z,100430.13
2023-05-24T21:13:22.523Z,100432.13
2023-05-24T21:15:53.282Z,100429.34
2023-05-24T21:18:24.140Z,100430.55
2023-05-24T21:20:54.811Z,100429.39
2023-05-24T21:23:25.615Z,100428.73
2023-05-24T21:25:56.405Z,100435.19
2023-05-24T21:28:27.241Z,100443.22
2023-05-24T21:30:58.087Z,100446.24
2023-05-24T21:33:28.938Z,100447.85
2023-05-24T21:35:59.697Z,100449.95
2023-05-24T21:38:30.563Z,100449.67
2023-05-24T21:41:01.319Z,100455.29
2023-05-24T21:43:32.124Z,100461.93
2023-05-24T21:46:02.953Z,100460.14
2023-05-24T21:48:33.764Z,100461.85
2023-05-24T21:51:04.762Z,100462.55
2023-05-24T21:53:35.903Z,100458.81
2023-05-24T21:56:06.941Z,100462.52
2023-05-24T21:58:38.521Z,100459.96
2023-05-24T22:01:09.425Z,100456.10
2023-05-24T22:03:40.404Z,100454.41
2023-05-24T22:06:11.703Z,100452.36
2023-05-24T22:08:42.418Z,100446.34
2023-05-24T22:11:13.188Z,100444.06
2023-05-24T22:13:44.068Z,100446.56
2023-05-24T22:16:14.935Z,100447.40
2023-05-24T22:18:45.864Z,100451.52
2023-05-24T22:21:16.495Z,100459.41
2023-05-24T22:23:47.340Z,100461.66
2023-05-24T22:26:18.179Z,100456.52
2023-05-24T22:28:56.046Z,100454.17
2023-05-24T22:31:27.881Z,100453.48
2023-05-24T22:34:02.249Z,100456.41
2023-05-24T22:36:33.776Z,100452.54
2023-05-24T22:39:04.709Z,100454.02
2023-05-24T22:41:35.593Z,100453.53
2023-05-24T22:44:06.394Z,100453.69
2023-05-24T22:46:37.875Z,100452.60
2023-05-24T22:49:08.691Z,100450.55
2023-05-24T22:51:44.278Z,100448.70
2023-05-24T22:54:15.350Z,100446.16
2023-05-24T22:56:47.128Z,100445.46
2023-05-24T22:59:18.010Z,100447.01
2023-05-24T23:01:48.923Z,100447.10
2023-05-24T23:04:21.832Z,100449.04
2023-05-24T23:06:53.636Z,100447.40
2023-05-24T23:09:35.107Z,100445.73
2023-05-24T23:12:08.474Z,100444.13
2023-05-24T23:14:41.822Z,100441.52
2023-05-24T23:17:14.539Z,100439.13
2023-05-24T23:19:45.383Z,100441.44
2023-05-24T23:22:18.558Z,100438.86
2023-05-24T23:24:49.403Z,100437.36
2023-05-24T23:27:20.357Z,100434.52
2023-05-24T23:29:51.307Z,100435.63
2023-05-24T23:32:22.111Z,100436.62
2023-05-24T23:34:52.983Z,100439.48
2023-05-24T23:37:23.802Z,100442.73
2023-05-24T23:39:54.600Z,100442.63
2023-05-24T23:42:26.471Z,100444.45
2023-05-24T23:44:57.257Z,100454.99
2023-05-24T23:47:28.146Z,100459.86
2023-05-24T23:49:58.976Z,100453.59
2023-05-24T23:52:29.786Z,100446.91
2023-05-24T23:55:00.552Z,100446.23
2023-05-24T23:57:31.331Z,100447.62
